sensor_id;sensor_type;location;lat;lon;timestamp;P1;durP1;ratioP1;P2;durP2;ratioP2
15356;SDS011;7778;48.792;9.260;2023-05-07T00:01:50;7.57;;;2.38;;
15356;SDS011;7778;48.792;9.260;2023-05-07T00:04:39;3.50;;;2.08;;
15356;SDS011;7778;48.792;9.260;2023-05-07T00:07:26;2.78;;;2.08;;
15356;SDS011;7778;48.792;9.260;2023-05-07T00:10:12;2.83;;;2.20;;
15356;SDS011;7778;48.792;9.260;2023-05-07T00:13:00;4.50;;;2.33;;
15356;SDS011;7778;48.792;9.260;2023-05-07T00:15:46;3.92;;;2.33;;
15356;SDS011;7778;48.792;9.260;2023-05-07T00:18:33;3.20;;;2.20;;
15356;SDS011;7778;48.792;9.260;2023-05-07T00:21:19;3.08;;;2.58;;
15356;SDS011;7778;48.792;9.260;2023-05-07T00:24:06;3.13;;;2.28;;
15356;SDS011;7778;48.792;9.260;2023-05-07T00:26:52;3.70;;;2.50;;
15356;SDS011;7778;48.792;9.260;2023-05-07T00:29:40;2.72;;;2.30;;
15356;SDS011;7778;48.792;9.260;2023-05-07T00:32:25;3.03;;;2.42;;
15356;SDS011;7778;48.792;9.260;2023-05-07T00:35:11;4.28;;;2.80;;
15356;SDS011;7778;48.792;9.260;2023-05-07T00:37:58;6.45;;;2.80;;
15356;SDS011;7778;48.792;9.260;2023-05-07T00:40:44;6.18;;;2.70;;
15356;SDS011;7778;48.792;9.260;2023-05-07T00:43:30;4.15;;;2.88;;
15356;SDS011;7778;48.792;9.260;2023-05-07T00:46:17;7.28;;;3.00;;
15356;SDS011;7778;48.792;9.260;2023-05-07T00:49:06;6.80;;;2.90;;
15356;SDS011;7778;48.792;9.260;2023-05-07T00:51:51;5.28;;;2.88;;
15356;SDS011;7778;48.792;9.260;2023-05-07T00:54:37;3.92;;;2.95;;
15356;SDS011;7778;48.792;9.260;2023-05-07T00:57:25;7.30;;;3.70;;
15356;SDS011;7778;48.792;9.260;2023-05-07T01:00:11;4.45;;;3.20;;
15356;SDS011;7778;48.792;9.260;2023-05-07T01:02:59;4.32;;;3.20;;
15356;SDS011;7778;48.792;9.260;2023-05-07T01:05:45;5.10;;;4.13;;
15356;SDS011;7778;48.792;9.260;2023-05-07T01:08:32;8.35;;;5.78;;
15356;SDS011;7778;48.792;9.260;2023-05-07T01:11:20;9.15;;;5.78;;
15356;SDS011;7778;48.792;9.260;2023-05-07T01:14:06;11.52;;;5.13;;
15356;SDS011;7778;48.792;9.260;2023-05-07T01:16:53;7.22;;;5.15;;
15356;SDS011;7778;48.792;9.260;2023-05-07T01:19:40;9.07;;;4.85;;
15356;SDS011;7778;48.792;9.260;2023-05-07T01:22:29;7.57;;;4.88;;
15356;SDS011;7778;48.792;9.260;2023-05-07T01:25:16;7.78;;;5.05;;
15356;SDS011;7778;48.792;9.260;2023-05-07T01:28:03;7.50;;;5.18;;
15356;SDS011;7778;48.792;9.260;2023-05-07T01:30:52;9.02;;;4.68;;
15356;SDS011;7778;48.792;9.260;2023-05-07T01:33:41;6.90;;;4.25;;
15356;SDS011;7778;48.792;9.260;2023-05-07T01:36:29;6.88;;;3.53;;
15356;SDS011;7778;48.792;9.260;2023-05-07T01:39:20;5.55;;;3.47;;
15356;SDS011;7778;48.792;9.260;2023-05-07T01:42:07;6.30;;;3.80;;
15356;SDS011;7778;48.792;9.260;2023-05-07T01:44:53;4.65;;;3.42;;
15356;SDS011;7778;48.792;9.260;2023-05-07T01:47:40;5.60;;;3.35;;
15356;SDS011;7778;48.792;9.260;2023-05-07T01:50:27;6.18;;;3.97;;
15356;SDS011;7778;48.792;9.260;2023-05-07T01:53:14;4.82;;;3.25;;
15356;SDS011;7778;48.792;9.260;2023-05-07T01:56:02;4.43;;;3.33;;
15356;SDS011;7778;48.792;9.260;2023-05-07T01:58:49;5.13;;;3.05;;
15356;SDS011;7778;48.792;9.260;2023-05-07T02:01:37;5.13;;;3.28;;
15356;SDS011;7778;48.792;9.260;2023-05-07T02:04:23;4.82;;;3.20;;
15356;SDS011;7778;48.792;9.260;2023-05-07T02:07:11;6.45;;;3.22;;
15356;SDS011;7778;48.792;9.260;2023-05-07T02:09:57;7.30;;;3.70;;
15356;SDS011;7778;48.792;9.260;2023-05-07T02:12:44;5.20;;;3.20;;
15356;SDS011;7778;48.792;9.260;2023-05-07T02:15:30;8.82;;;3.67;;
15356;SDS011;7778;48.792;9.260;2023-05-07T02:18:16;4.63;;;3.22;;
15356;SDS011;7778;48.792;9.260;2023-05-07T02:21:02;4.55;;;3.28;;
15356;SDS011;7778;48.792;9.260;2023-05-07T02:23:48;4.45;;;3.25;;
15356;SDS011;7778;48.792;9.260;2023-05-07T02:26:34;6.18;;;3.67;;
15356;SDS011;7778;48.792;9.260;2023-05-07T02:29:21;4.97;;;3.40;;
15356;SDS011;7778;48.792;9.260;2023-05-07T02:32:07;7.38;;;3.25;;
15356;SDS011;7778;48.792;9.260;2023-05-07T02:34:53;5.03;;;2.88;;
15356;SDS011;7778;48.792;9.260;2023-05-07T02:37:38;4.85;;;3.30;;
15356;SDS011;7778;48.792;9.260;2023-05-07T02:40:24;7.05;;;3.55;;
15356;SDS011;7778;48.792;9.260;2023-05-07T02:43:09;6.13;;;3.63;;
15356;SDS011;7778;48.792;9.260;2023-05-07T02:46:01;5.90;;;3.47;;
15356;SDS011;7778;48.792;9.260;2023-05-07T02:48:48;6.63;;;3.28;;
15356;SDS011;7778;48.792;9.260;2023-05-07T02:51:34;5.38;;;3.85;;
15356;SDS011;7778;48.792;9.260;2023-05-07T02:54:19;5.90;;;3.30;;
15356;SDS011;7778;48.792;9.260;2023-05-07T02:57:08;8.02;;;3.60;;
15356;SDS011;7778;48.792;9.260;2023-05-07T02:59:53;4.78;;;3.25;;
15356;SDS011;7778;48.792;9.260;2023-05-07T03:02:40;6.38;;;3.20;;
15356;SDS011;7778;48.792;9.260;2023-05-07T03:05:26;4.68;;;3.40;;
15356;SDS011;7778;48.792;9.260;2023-05-07T03:08:12;6.45;;;3.03;;
15356;SDS011;7778;48.792;9.260;2023-05-07T03:10:58;9.88;;;4.00;;
15356;SDS011;7778;48.792;9.260;2023-05-07T03:13:44;5.28;;;3.45;;
15356;SDS011;7778;48.792;9.260;2023-05-07T03:16:30;7.25;;;3.60;;
15356;SDS011;7778;48.792;9.260;2023-05-07T03:19:17;6.28;;;3.28;;
15356;SDS011;7778;48.792;9.260;2023-05-07T03:22:03;8.25;;;3.60;;
15356;SDS011;7778;48.792;9.260;2023-05-07T03:24:49;3.17;;;2.75;;
15356;SDS011;7778;48.792;9.260;2023-05-07T03:27:35;4.45;;;3.15;;
15356;SDS011;7778;48.792;9.260;2023-05-07T03:30:21;5.63;;;3.53;;
15356;SDS011;7778;48.792;9.260;2023-05-07T03:33:08;6.18;;;3.67;;
15356;SDS011;7778;48.792;9.260;2023-05-07T03:35:56;6.85;;;3.80;;
15356;SDS011;7778;48.792;9.260;2023-05-07T03:38:43;5.65;;;3.40;;
15356;SDS011;7778;48.792;9.260;2023-05-07T03:41:28;6.57;;;3.78;;
15356;SDS011;7778;48.792;9.260;2023-05-07T03:44:14;6.20;;;4.00;;
15356;SDS011;7778;48.792;9.260;2023-05-07T03:47:00;7.78;;;3.58;;
15356;SDS011;7778;48.792;9.260;2023-05-07T03:49:46;7.75;;;3.72;;
15356;SDS011;7778;48.792;9.260;2023-05-07T03:52:33;6.50;;;3.78;;
15356;SDS011;7778;48.792;9.260;2023-05-07T03:55:18;5.00;;;3.53;;
15356;SDS011;7778;48.792;9.260;2023-05-07T03:58:05;7.13;;;3.42;;
15356;SDS011;7778;48.792;9.260;2023-05-07T04:00:51;4.18;;;2.97;;
15356;SDS011;7778;48.792;9.260;2023-05-07T04:03:36;5.20;;;3.72;;
15356;SDS011;7778;48.792;9.260;2023-05-07T04:06:22;4.90;;;3.30;;
15356;SDS011;7778;48.792;9.260;2023-05-07T04:09:10;4.45;;;2.90;;
15356;SDS011;7778;48.792;9.260;2023-05-07T04:11:56;3.10;;;2.80;;
15356;SDS011;7778;48.792;9.260;2023-05-07T04:14:41;3.45;;;2.63;;
15356;SDS011;7778;48.792;9.260;2023-05-07T04:17:27;4.88;;;3.25;;
15356;SDS011;7778;48.792;9.260;2023-05-07T04:20:13;3.67;;;3.13;;
15356;SDS011;7778;48.792;9.260;2023-05-07T04:23:01;4.50;;;3.20;;
15356;SDS011;7778;48.792;9.260;2023-05-07T04:25:48;4.70;;;3.38;;
15356;SDS011;7778;48.792;9.260;2023-05-07T04:28:35;5.38;;;3.50;;
15356;SDS011;7778;48.792;9.260;2023-05-07T04:31:21;5.13;;;2.83;;
15356;SDS011;7778;48.792;9.260;2023-05-07T04:34:06;4.75;;;3.33;;
15356;SDS011;7778;48.792;9.260;2023-05-07T04:36:52;5.20;;;3.00;;
15356;SDS011;7778;48.792;9.260;2023-05-07T04:39:39;6.55;;;3.45;;
15356;SDS011;7778;48.792;9.260;2023-05-07T04:42:26;4.40;;;3.15;;
15356;SDS011;7778;48.792;9.260;2023-05-07T04:45:12;5.45;;;3.58;;
15356;SDS011;7778;48.792;9.260;2023-05-07T04:47:58;4.78;;;3.17;;
15356;SDS011;7778;48.792;9.260;2023-05-07T04:50:44;5.63;;;3.03;;
15356;SDS011;7778;48.792;9.260;2023-05-07T04:53:32;5.55;;;3.30;;
15356;SDS011;7778;48.792;9.260;2023-05-07T04:56:18;6.05;;;3.45;;
15356;SDS011;7778;48.792;9.260;2023-05-07T04:59:05;6.88;;;3.83;;
15356;SDS011;7778;48.792;9.260;2023-05-07T05:01:51;5.18;;;3.05;;
15356;SDS011;7778;48.792;9.260;2023-05-07T05:04:36;5.63;;;3.22;;
15356;SDS011;7778;48.792;9.260;2023-05-07T05:07:22;5.03;;;3.90;;
15356;SDS011;7778;48.792;9.260;2023-05-07T05:10:08;10.13;;;3.67;;
15356;SDS011;7778;48.792;9.260;2023-05-07T05:12:54;6.05;;;3.25;;
15356;SDS011;7778;48.792;9.260;2023-05-07T05:15:41;5.30;;;3.33;;
15356;SDS011;7778;48.792;9.260;2023-05-07T05:18:27;5.13;;;3.20;;
15356;SDS011;7778;48.792;9.260;2023-05-07T05:21:12;4.38;;;2.95;;
15356;SDS011;7778;48.792;9.260;2023-05-07T05:23:58;6.03;;;3.28;;
15356;SDS011;7778;48.792;9.260;2023-05-07T05:26:43;5.15;;;3.20;;
15356;SDS011;7778;48.792;9.260;2023-05-07T05:29:29;5.68;;;3.65;;
15356;SDS011;7778;48.792;9.260;2023-05-07T05:32:16;6.85;;;3.40;;
15356;SDS011;7778;48.792;9.260;2023-05-07T05:35:02;4.28;;;3.00;;
15356;SDS011;7778;48.792;9.260;2023-05-07T05:37:49;7.07;;;3.33;;
15356;SDS011;7778;48.792;9.260;2023-05-07T05:40:35;5.72;;;2.92;;
15356;SDS011;7778;48.792;9.260;2023-05-07T05:43:20;6.32;;;3.25;;
15356;SDS011;7778;48.792;9.260;2023-05-07T05:46:06;5.38;;;3.55;;
15356;SDS011;7778;48.792;9.260;2023-05-07T05:48:54;4.05;;;2.83;;
15356;SDS011;7778;48.792;9.260;2023-05-07T05:51:39;7.72;;;3.25;;
15356;SDS011;7778;48.792;9.260;2023-05-07T05:54:25;6.28;;;3.40;;
15356;SDS011;7778;48.792;9.260;2023-05-07T05:57:10;6.57;;;3.35;;
15356;SDS011;7778;48.792;9.260;2023-05-07T05:59:56;5.57;;;3.45;;
15356;SDS011;7778;48.792;9.260;2023-05-07T06:02:41;4.57;;;3.08;;
15356;SDS011;7778;48.792;9.260;2023-05-07T06:05:29;7.30;;;3.28;;
15356;SDS011;7778;48.792;9.260;2023-05-07T06:08:14;4.15;;;2.88;;
15356;SDS011;7778;48.792;9.260;2023-05-07T06:11:01;7.50;;;3.25;;
15356;SDS011;7778;48.792;9.260;2023-05-07T06:13:50;5.65;;;3.17;;
15356;SDS011;7778;48.792;9.260;2023-05-07T06:16:37;4.88;;;2.72;;
15356;SDS011;7778;48.792;9.260;2023-05-07T06:19:23;6.47;;;2.90;;
15356;SDS011;7778;48.792;9.260;2023-05-07T06:22:11;5.28;;;3.10;;
15356;SDS011;7778;48.792;9.260;2023-05-07T06:24:57;4.05;;;2.78;;
15356;SDS011;7778;48.792;9.260;2023-05-07T06:27:42;5.50;;;3.15;;
15356;SDS011;7778;48.792;9.260;2023-05-07T06:30:28;4.78;;;3.63;;
15356;SDS011;7778;48.792;9.260;2023-05-07T06:33:15;4.22;;;3.28;;
15356;SDS011;7778;48.792;9.260;2023-05-07T06:36:00;4.80;;;3.67;;
15356;SDS011;7778;48.792;9.260;2023-05-07T06:38:50;5.07;;;3.78;;
15356;SDS011;7778;48.792;9.260;2023-05-07T06:41:36;6.05;;;3.53;;
15356;SDS011;7778;48.792;9.260;2023-05-07T06:44:22;7.85;;;3.58;;
15356;SDS011;7778;48.792;9.260;2023-05-07T06:47:09;5.97;;;3.25;;
15356;SDS011;7778;48.792;9.260;2023-05-07T06:49:55;4.80;;;3.30;;
15356;SDS011;7778;48.792;9.260;2023-05-07T06:52:44;10.23;;;3.38;;
15356;SDS011;7778;48.792;9.260;2023-05-07T06:55:31;5.38;;;3.50;;
15356;SDS011;7778;48.792;9.260;2023-05-07T06:58:18;7.78;;;3.67;;
15356;SDS011;7778;48.792;9.260;2023-05-07T07:01:04;5.47;;;2.80;;
15356;SDS011;7778;48.792;9.260;2023-05-07T07:03:50;7.10;;;3.17;;
15356;SDS011;7778;48.792;9.260;2023-05-07T07:06:36;6.88;;;3.17;;
15356;SDS011;7778;48.792;9.260;2023-05-07T07:09:23;6.25;;;3.58;;
15356;SDS011;7778;48.792;9.260;2023-05-07T07:12:12;5.38;;;3.20;;
15356;SDS011;7778;48.792;9.260;2023-05-07T07:14:59;4.97;;;2.90;;
15356;SDS011;7778;48.792;9.260;2023-05-07T07:17:46;10.18;;;2.88;;
15356;SDS011;7778;48.792;9.260;2023-05-07T07:20:32;6.75;;;3.17;;
15356;SDS011;7778;48.792;9.260;2023-05-07T07:23:18;3.25;;;2.53;;
15356;SDS011;7778;48.792;9.260;2023-05-07T07:26:04;4.53;;;3.33;;
15356;SDS011;7778;48.792;9.260;2023-05-07T07:28:51;5.57;;;2.83;;
15356;SDS011;7778;48.792;9.260;2023-05-07T07:31:37;3.88;;;2.50;;
15356;SDS011;7778;48.792;9.260;2023-05-07T07:34:23;3.30;;;2.63;;
15356;SDS011;7778;48.792;9.260;2023-05-07T07:37:08;4.35;;;2.72;;
15356;SDS011;7778;48.792;9.260;2023-05-07T07:39:54;4.15;;;2.75;;
15356;SDS011;7778;48.792;9.260;2023-05-07T07:42:40;4.80;;;2.42;;
15356;SDS011;7778;48.792;9.260;2023-05-07T07:45:27;3.33;;;2.67;;
15356;SDS011;7778;48.792;9.260;2023-05-07T07:48:13;5.43;;;2.75;;
15356;SDS011;7778;48.792;9.260;2023-05-07T07:50:59;3.88;;;2.55;;
15356;SDS011;7778;48.792;9.260;2023-05-07T07:53:45;6.88;;;2.35;;
15356;SDS011;7778;48.792;9.260;2023-05-07T07:56:31;3.17;;;2.45;;
15356;SDS011;7778;48.792;9.260;2023-05-07T07:59:18;3.85;;;2.78;;
15356;SDS011;7778;48.792;9.260;2023-05-07T08:02:05;3.80;;;2.70;;
15356;SDS011;7778;48.792;9.260;2023-05-07T08:04:51;2.83;;;2.25;;
15356;SDS011;7778;48.792;9.260;2023-05-07T08:07:37;4.35;;;2.20;;
15356;SDS011;7778;48.792;9.260;2023-05-07T08:10:22;3.95;;;2.00;;
15356;SDS011;7778;48.792;9.260;2023-05-07T08:13:08;2.75;;;2.00;;
15356;SDS011;7778;48.792;9.260;2023-05-07T08:15:53;2.28;;;2.00;;
15356;SDS011;7778;48.792;9.260;2023-05-07T08:18:40;2.95;;;2.05;;
15356;SDS011;7778;48.792;9.260;2023-05-07T08:21:26;1.83;;;1.73;;
15356;SDS011;7778;48.792;9.260;2023-05-07T08:24:11;4.47;;;1.85;;
15356;SDS011;7778;48.792;9.260;2023-05-07T08:26:58;3.13;;;1.77;;
15356;SDS011;7778;48.792;9.260;2023-05-07T08:29:44;2.20;;;2.00;;
15356;SDS011;7778;48.792;9.260;2023-05-07T08:32:31;2.60;;;2.10;;
15356;SDS011;7778;48.792;9.260;2023-05-07T08:35:18;2.00;;;1.80;;
15356;SDS011;7778;48.792;9.260;2023-05-07T08:38:04;2.25;;;1.70;;
15356;SDS011;7778;48.792;9.260;2023-05-07T08:40:50;4.82;;;1.90;;
15356;SDS011;7778;48.792;9.260;2023-05-07T08:43:36;2.13;;;1.92;;
15356;SDS011;7778;48.792;9.260;2023-05-07T08:46:25;3.53;;;2.00;;
15356;SDS011;7778;48.792;9.260;2023-05-07T08:49:16;1.95;;;1.83;;
15356;SDS011;7778;48.792;9.260;2023-05-07T08:52:03;2.85;;;1.88;;
15356;SDS011;7778;48.792;9.260;2023-05-07T08:54:49;2.97;;;1.80;;
15356;SDS011;7778;48.792;9.260;2023-05-07T08:57:35;4.32;;;2.03;;
15356;SDS011;7778;48.792;9.260;2023-05-07T09:00:21;3.45;;;2.40;;
15356;SDS011;7778;48.792;9.260;2023-05-07T09:03:07;2.45;;;2.25;;
15356;SDS011;7778;48.792;9.260;2023-05-07T09:05:55;3.92;;;1.80;;
15356;SDS011;7778;48.792;9.260;2023-05-07T09:08:43;4.22;;;2.40;;
15356;SDS011;7778;48.792;9.260;2023-05-07T09:11:35;3.92;;;2.30;;
15356;SDS011;7778;48.792;9.260;2023-05-07T09:14:21;3.42;;;1.98;;
15356;SDS011;7778;48.792;9.260;2023-05-07T09:17:07;2.05;;;1.88;;
15356;SDS011;7778;48.792;9.260;2023-05-07T09:19:52;2.28;;;2.05;;
15356;SDS011;7778;48.792;9.260;2023-05-07T09:22:38;3.22;;;1.55;;
15356;SDS011;7778;48.792;9.260;2023-05-07T09:25:31;4.20;;;1.90;;
15356;SDS011;7778;48.792;9.260;2023-05-07T09:28:19;6.70;;;2.00;;
15356;SDS011;7778;48.792;9.260;2023-05-07T09:31:04;2.08;;;1.60;;
15356;SDS011;7778;48.792;9.260;2023-05-07T09:33:50;2.20;;;2.00;;
15356;SDS011;7778;48.792;9.260;2023-05-07T09:36:39;3.92;;;2.10;;
15356;SDS011;7778;48.792;9.260;2023-05-07T09:39:25;2.75;;;2.20;;
15356;SDS011;7778;48.792;9.260;2023-05-07T09:42:13;3.17;;;1.85;;
15356;SDS011;7778;48.792;9.260;2023-05-07T09:44:59;1.90;;;1.70;;
15356;SDS011;7778;48.792;9.260;2023-05-07T09:47:45;2.97;;;1.80;;
15356;SDS011;7778;48.792;9.260;2023-05-07T09:50:35;3.38;;;2.00;;
15356;SDS011;7778;48.792;9.260;2023-05-07T09:53:29;2.40;;;1.80;;
15356;SDS011;7778;48.792;9.260;2023-05-07T09:56:16;1.70;;;1.60;;
15356;SDS011;7778;48.792;9.260;2023-05-07T09:59:03;2.00;;;1.75;;
15356;SDS011;7778;48.792;9.260;2023-05-07T10:01:52;1.95;;;1.42;;
15356;SDS011;7778;48.792;9.260;2023-05-07T10:04:41;3.42;;;1.63;;
15356;SDS011;7778;48.792;9.260;2023-05-07T10:07:27;2.35;;;1.45;;
15356;SDS011;7778;48.792;9.260;2023-05-07T10:10:14;2.97;;;1.70;;
15356;SDS011;7778;48.792;9.260;2023-05-07T10:13:00;6.18;;;1.83;;
15356;SDS011;7778;48.792;9.260;2023-05-07T10:15:50;2.55;;;1.73;;
15356;SDS011;7778;48.792;9.260;2023-05-07T10:18:36;2.97;;;1.80;;
15356;SDS011;7778;48.792;9.260;2023-05-07T10:21:23;1.75;;;1.60;;
15356;SDS011;7778;48.792;9.260;2023-05-07T10:24:13;2.75;;;1.95;;
15356;SDS011;7778;48.792;9.260;2023-05-07T10:27:07;1.70;;;1.60;;
15356;SDS011;7778;48.792;9.260;2023-05-07T10:30:00;1.90;;;1.40;;
15356;SDS011;7778;48.792;9.260;2023-05-07T10:33:01;2.22;;;1.70;;
15356;SDS011;7778;48.792;9.260;2023-05-07T10:35:55;1.80;;;1.40;;
15356;SDS011;7778;48.792;9.260;2023-05-07T10:38:45;5.05;;;2.30;;
15356;SDS011;7778;48.792;9.260;2023-05-07T10:41:31;1.50;;;1.40;;
15356;SDS011;7778;48.792;9.260;2023-05-07T10:44:26;2.53;;;1.90;;
15356;SDS011;7778;48.792;9.260;2023-05-07T10:47:14;2.25;;;1.80;;
15356;SDS011;7778;48.792;9.260;2023-05-07T10:50:21;3.05;;;1.80;;
15356;SDS011;7778;48.792;9.260;2023-05-07T10:53:24;2.30;;;1.63;;
15356;SDS011;7778;48.792;9.260;2023-05-07T10:56:24;5.72;;;1.88;;
15356;SDS011;7778;48.792;9.260;2023-05-07T10:59:33;1.92;;;1.60;;
15356;SDS011;7778;48.792;9.260;2023-05-07T11:02:35;2.08;;;1.85;;
15356;SDS011;7778;48.792;9.260;2023-05-07T11:08:57;1.75;;;1.65;;
15356;SDS011;7778;48.792;9.260;2023-05-07T11:11:44;1.95;;;1.75;;
15356;SDS011;7778;48.792;9.260;2023-05-07T11:14:42;1.98;;;1.70;;
15356;SDS011;7778;48.792;9.260;2023-05-07T11:17:29;2.15;;;1.83;;
15356;SDS011;7778;48.792;9.260;2023-05-07T11:20:15;1.77;;;1.60;;
15356;SDS011;7778;48.792;9.260;2023-05-07T11:23:02;1.77;;;1.67;;
15356;SDS011;7778;48.792;9.260;2023-05-07T11:25:48;2.35;;;1.80;;
15356;SDS011;7778;48.792;9.260;2023-05-07T11:28:36;2.92;;;1.73;;
15356;SDS011;7778;48.792;9.260;2023-05-07T11:31:24;1.92;;;1.73;;
15356;SDS011;7778;48.792;9.260;2023-05-07T11:34:12;4.53;;;2.85;;
15356;SDS011;7778;48.792;9.260;2023-05-07T11:36:58;2.65;;;2.35;;
15356;SDS011;7778;48.792;9.260;2023-05-07T11:39:47;4.68;;;1.92;;
15356;SDS011;7778;48.792;9.260;2023-05-07T11:42:38;7.45;;;3.97;;
15356;SDS011;7778;48.792;9.260;2023-05-07T11:45:26;3.35;;;2.10;;
15356;SDS011;7778;48.792;9.260;2023-05-07T11:48:12;3.28;;;1.92;;
15356;SDS011;7778;48.792;9.260;2023-05-07T11:51:00;1.88;;;1.67;;
15356;SDS011;7778;48.792;9.260;2023-05-07T11:53:47;2.38;;;2.10;;
15356;SDS011;7778;48.792;9.260;2023-05-07T11:56:34;3.22;;;1.80;;
15356;SDS011;7778;48.792;9.260;2023-05-07T11:59:20;1.80;;;1.70;;
15356;SDS011;7778;48.792;9.260;2023-05-07T12:02:06;3.55;;;1.80;;
15356;SDS011;7778;48.792;9.260;2023-05-07T12:04:52;1.88;;;1.70;;
15356;SDS011;7778;48.792;9.260;2023-05-07T12:07:38;1.80;;;1.30;;
15356;SDS011;7778;48.792;9.260;2023-05-07T12:10:24;1.85;;;1.40;;
15356;SDS011;7778;48.792;9.260;2023-05-07T12:13:15;3.10;;;2.03;;
15356;SDS011;7778;48.792;9.260;2023-05-07T12:16:01;1.27;;;1.17;;
15356;SDS011;7778;48.792;9.260;2023-05-07T12:18:49;4.53;;;1.70;;
15356;SDS011;7778;48.792;9.260;2023-05-07T12:21:36;2.80;;;1.55;;
15356;SDS011;7778;48.792;9.260;2023-05-07T12:24:21;2.60;;;1.30;;
15356;SDS011;7778;48.792;9.260;2023-05-07T12:27:07;2.70;;;1.45;;
15356;SDS011;7778;48.792;9.260;2023-05-07T12:29:56;3.63;;;2.00;;
15356;SDS011;7778;48.792;9.260;2023-05-07T12:32:43;3.35;;;2.08;;
15356;SDS011;7778;48.792;9.260;2023-05-07T12:35:30;1.98;;;1.70;;
15356;SDS011;7778;48.792;9.260;2023-05-07T12:38:23;4.25;;;1.80;;
15356;SDS011;7778;48.792;9.260;2023-05-07T12:41:09;5.30;;;2.90;;
15356;SDS011;7778;48.792;9.260;2023-05-07T12:43:56;9.05;;;3.30;;
15356;SDS011;7778;48.792;9.260;2023-05-07T12:46:43;6.90;;;2.30;;
15356;SDS011;7778;48.792;9.260;2023-05-07T12:49:29;12.07;;;3.28;;
15356;SDS011;7778;48.792;9.260;2023-05-07T12:52:15;5.57;;;2.90;;
15356;SDS011;7778;48.792;9.260;2023-05-07T12:55:04;6.88;;;2.30;;
15356;SDS011;7778;48.792;9.260;2023-05-07T12:57:51;6.20;;;2.72;;
15356;SDS011;7778;48.792;9.260;2023-05-07T13:00:38;4.05;;;2.45;;
15356;SDS011;7778;48.792;9.260;2023-05-07T13:03:26;3.05;;;2.22;;
15356;SDS011;7778;48.792;9.260;2023-05-07T13:06:13;2.65;;;1.42;;
15356;SDS011;7778;48.792;9.260;2023-05-07T13:08:59;3.83;;;1.77;;
15356;SDS011;7778;48.792;9.260;2023-05-07T13:11:44;3.13;;;1.95;;
15356;SDS011;7778;48.792;9.260;2023-05-07T13:14:31;5.35;;;2.53;;
15356;SDS011;7778;48.792;9.260;2023-05-07T13:17:16;2.47;;;1.80;;
15356;SDS011;7778;48.792;9.260;2023-05-07T13:20:04;5.15;;;1.85;;
15356;SDS011;7778;48.792;9.260;2023-05-07T13:22:51;2.45;;;1.98;;
15356;SDS011;7778;48.792;9.260;2023-05-07T13:25:37;5.20;;;1.63;;
15356;SDS011;7778;48.792;9.260;2023-05-07T13:28:23;3.35;;;1.10;;
15356;SDS011;7778;48.792;9.260;2023-05-07T13:31:09;5.05;;;1.90;;
15356;SDS011;7778;48.792;9.260;2023-05-07T13:33:55;4.85;;;1.63;;
15356;SDS011;7778;48.792;9.260;2023-05-07T13:36:42;3.15;;;0.95;;
15356;SDS011;7778;48.792;9.260;2023-05-07T13:39:27;1.48;;;0.95;;
15356;SDS011;7778;48.792;9.260;2023-05-07T13:42:13;4.93;;;2.55;;
15356;SDS011;7778;48.792;9.260;2023-05-07T13:44:59;2.42;;;1.08;;
15356;SDS011;7778;48.792;9.260;2023-05-07T13:47:46;0.85;;;0.85;;
15356;SDS011;7778;48.792;9.260;2023-05-07T13:50:33;5.18;;;1.10;;
15356;SDS011;7778;48.792;9.260;2023-05-07T13:53:20;4.15;;;1.60;;
15356;SDS011;7778;48.792;9.260;2023-05-07T13:56:06;2.80;;;1.70;;
15356;SDS011;7778;48.792;9.260;2023-05-07T13:58:51;2.67;;;1.63;;
15356;SDS011;7778;48.792;9.260;2023-05-07T14:01:37;2.40;;;1.80;;
15356;SDS011;7778;48.792;9.260;2023-05-07T14:04:23;1.38;;;1.27;;
15356;SDS011;7778;48.792;9.260;2023-05-07T14:07:09;6.50;;;1.92;;
15356;SDS011;7778;48.792;9.260;2023-05-07T14:09:56;3.58;;;1.33;;
15356;SDS011;7778;48.792;9.260;2023-05-07T14:12:42;7.05;;;2.97;;
15356;SDS011;7778;48.792;9.260;2023-05-07T14:15:28;3.28;;;1.10;;
15356;SDS011;7778;48.792;9.260;2023-05-07T14:18:15;2.35;;;1.50;;
15356;SDS011;7778;48.792;9.260;2023-05-07T14:21:01;1.50;;;1.38;;
15356;SDS011;7778;48.792;9.260;2023-05-07T14:23:47;5.22;;;1.80;;
15356;SDS011;7778;48.792;9.260;2023-05-07T14:26:34;2.03;;;1.55;;
15356;SDS011;7778;48.792;9.260;2023-05-07T14:29:20;4.55;;;1.88;;
15356;SDS011;7778;48.792;9.260;2023-05-07T14:32:06;3.50;;;1.67;;
15356;SDS011;7778;48.792;9.260;2023-05-07T14:34:51;2.50;;;1.50;;
15356;SDS011;7778;48.792;9.260;2023-05-07T14:37:37;1.95;;;1.58;;
15356;SDS011;7778;48.792;9.260;2023-05-07T14:40:22;3.17;;;1.70;;
15356;SDS011;7778;48.792;9.260;2023-05-07T14:43:09;2.88;;;1.73;;
15356;SDS011;7778;48.792;9.260;2023-05-07T14:45:55;3.78;;;1.90;;
15356;SDS011;7778;48.792;9.260;2023-05-07T14:48:41;6.10;;;1.70;;
15356;SDS011;7778;48.792;9.260;2023-05-07T14:51:27;3.58;;;1.80;;
15356;SDS011;7778;48.792;9.260;2023-05-07T14:54:14;2.45;;;1.55;;
15356;SDS011;7778;48.792;9.260;2023-05-07T14:57:00;4.10;;;1.92;;
15356;SDS011;7778;48.792;9.260;2023-05-07T14:59:47;1.50;;;1.40;;
15356;SDS011;7778;48.792;9.260;2023-05-07T15:02:33;2.65;;;1.48;;
15356;SDS011;7778;48.792;9.260;2023-05-07T15:05:19;4.20;;;2.17;;
15356;SDS011;7778;48.792;9.260;2023-05-07T15:08:05;2.95;;;1.80;;
15356;SDS011;7778;48.792;9.260;2023-05-07T15:10:50;3.38;;;2.10;;
15356;SDS011;7778;48.792;9.260;2023-05-07T15:13:36;3.40;;;1.77;;
15356;SDS011;7778;48.792;9.260;2023-05-07T15:16:23;3.20;;;1.40;;
15356;SDS011;7778;48.792;9.260;2023-05-07T15:19:08;1.20;;;1.10;;
15356;SDS011;7778;48.792;9.260;2023-05-07T15:21:57;1.85;;;1.30;;
15356;SDS011;7778;48.792;9.260;2023-05-07T15:24:46;5.85;;;2.10;;
15356;SDS011;7778;48.792;9.260;2023-05-07T15:27:31;4.78;;;1.80;;
15356;SDS011;7778;48.792;9.260;2023-05-07T15:30:17;4.15;;;1.40;;
15356;SDS011;7778;48.792;9.260;2023-05-07T15:33:05;2.83;;;1.80;;
15356;SDS011;7778;48.792;9.260;2023-05-07T15:35:50;3.50;;;1.92;;
15356;SDS011;7778;48.792;9.260;2023-05-07T15:38:36;4.70;;;2.15;;
15356;SDS011;7778;48.792;9.260;2023-05-07T15:41:22;4.57;;;2.38;;
15356;SDS011;7778;48.792;9.260;2023-05-07T15:44:07;3.42;;;2.17;;
15356;SDS011;7778;48.792;9.260;2023-05-07T15:46:53;2.78;;;2.17;;
15356;SDS011;7778;48.792;9.260;2023-05-07T15:49:40;8.65;;;2.65;;
15356;SDS011;7778;48.792;9.260;2023-05-07T15:52:27;4.82;;;2.10;;
15356;SDS011;7778;48.792;9.260;2023-05-07T15:55:13;6.82;;;3.33;;
15356;SDS011;7778;48.792;9.260;2023-05-07T15:57:58;3.10;;;1.92;;
15356;SDS011;7778;48.792;9.260;2023-05-07T16:00:45;4.97;;;1.90;;
15356;SDS011;7778;48.792;9.260;2023-05-07T16:03:31;3.63;;;2.22;;
15356;SDS011;7778;48.792;9.260;2023-05-07T16:06:18;2.13;;;1.75;;
15356;SDS011;7778;48.792;9.260;2023-05-07T16:09:04;7.97;;;2.25;;
15356;SDS011;7778;48.792;9.260;2023-05-07T16:11:50;2.97;;;2.03;;
15356;SDS011;7778;48.792;9.260;2023-05-07T16:14:36;5.57;;;1.65;;
15356;SDS011;7778;48.792;9.260;2023-05-07T16:17:21;4.75;;;1.70;;
15356;SDS011;7778;48.792;9.260;2023-05-07T16:20:07;2.20;;;1.60;;
15356;SDS011;7778;48.792;9.260;2023-05-07T16:22:57;2.38;;;1.80;;
15356;SDS011;7778;48.792;9.260;2023-05-07T16:25:43;2.58;;;1.88;;
15356;SDS011;7778;48.792;9.260;2023-05-07T16:28:28;2.35;;;1.60;;
15356;SDS011;7778;48.792;9.260;2023-05-07T16:31:14;2.90;;;1.98;;
15356;SDS011;7778;48.792;9.260;2023-05-07T16:34:00;3.67;;;1.88;;
15356;SDS011;7778;48.792;9.260;2023-05-07T16:36:48;3.65;;;2.13;;
15356;SDS011;7778;48.792;9.260;2023-05-07T16:39:35;3.83;;;2.20;;
15356;SDS011;7778;48.792;9.260;2023-05-07T16:42:23;4.13;;;2.30;;
15356;SDS011;7778;48.792;9.260;2023-05-07T16:45:09;4.25;;;2.10;;
15356;SDS011;7778;48.792;9.260;2023-05-07T16:47:55;3.47;;;2.10;;
15356;SDS011;7778;48.792;9.260;2023-05-07T16:50:41;4.00;;;2.42;;
15356;SDS011;7778;48.792;9.260;2023-05-07T16:53:27;4.78;;;2.30;;
15356;SDS011;7778;48.792;9.260;2023-05-07T16:56:14;3.75;;;2.20;;
15356;SDS011;7778;48.792;9.260;2023-05-07T16:59:00;2.85;;;2.20;;
15356;SDS011;7778;48.792;9.260;2023-05-07T17:01:46;7.40;;;3.20;;
15356;SDS011;7778;48.792;9.260;2023-05-07T17:04:31;3.45;;;2.83;;